Time;durP1;ratioP1;P1;durP2;ratioP2;P2;SDS_P1;SDS_P2;PMS_P1;PMS_P2;Temp;Humidity;BMP_temperature;BMP_pressure;BME280_temperature;BME280_humidity;BME280_pressure;Samples;Min_cycle;Max_cycle;Signal;HPM_P1;HPM_P2
2022/02/22 00:01:28;;;;;;;3.87;0.80;;;10.80;53.20;;;;;;2423805;54;20952;-73
2022/02/22 00:03:54;;;;;;;2.28;0.60;;;10.80;53.10;;;;;;2286613;56;20973;-72
2022/02/22 00:06:24;;;;;;;5.07;0.88;;;10.80;53.10;;;;;;2286915;56;20956;-73
2022/02/22 00:08:53;;;;;;;3.35;0.80;;;10.80;53.10;;;;;;2286619;56;21524;-72
2022/02/22 00:11:21;;;;;;;4.12;0.85;;;10.80;53.10;;;;;;2264478;56;21024;-73
2022/02/22 00:13:48;;;;;;;2.78;0.68;;;10.80;53.10;;;;;;2287648;56;21525;-73
2022/02/22 00:16:14;;;;;;;2.30;0.77;;;10.80;53.10;;;;;;2286474;56;20909;-72
2022/02/22 00:18:42;;;;;;;4.15;0.85;;;10.80;53.10;;;;;;2464792;55;21497;-73
2022/02/22 00:21:08;;;;;;;2.85;0.68;;;10.80;53.10;;;;;;2287430;56;21033;-73
2022/02/22 00:23:36;;;;;;;2.60;0.77;;;10.80;53.10;;;;;;2287497;56;21040;-74
2022/02/22 00:26:03;;;;;;;3.22;0.80;;;10.80;53.10;;;;;;2336058;55;20964;-72
2022/02/22 00:28:29;;;;;;;2.97;0.77;;;10.80;53.10;;;;;;2303160;55;20961;-73
2022/02/22 00:30:55;;;;;;;3.80;0.80;;;10.80;53.00;;;;;;2326537;55;21005;-73
2022/02/22 00:33:22;;;;;;;2.70;0.62;;;10.80;53.00;;;;;;2290280;55;20974;-73
2022/02/22 00:35:48;;;;;;;3.67;0.70;;;10.80;53.00;;;;;;2355265;55;20990;-72
2022/02/22 00:38:15;;;;;;;3.05;0.90;;;10.80;53.00;;;;;;2288023;56;20958;-73
2022/02/22 00:40:41;;;;;;;2.17;0.60;;;10.80;53.00;;;;;;2398361;55;20945;-73
2022/02/22 00:43:08;;;;;;;4.78;0.90;;;10.80;53.00;;;;;;2287662;56;20960;-72
2022/02/22 00:45:36;;;;;;;4.10;0.47;;;10.80;53.00;;;;;;2349140;55;21024;-72
2022/02/22 00:48:02;;;;;;;3.70;0.80;;;10.80;52.90;;;;;;2365618;55;20956;-72
2022/02/22 00:50:29;;;;;;;1.85;0.47;;;10.80;52.90;;;;;;2301859;55;21123;-73
2022/02/22 00:52:58;;;;;;;3.95;0.60;;;10.80;52.90;;;;;;2287420;56;20953;-73
2022/02/22 00:55:25;;;;;;;3.37;0.70;;;10.80;52.90;;;;;;2328344;55;21455;-72
2022/02/22 00:57:53;;;;;;;2.70;0.55;;;10.80;52.90;;;;;;2330626;55;20933;-73
2022/02/22 01:00:19;;;;;;;3.65;0.75;;;10.80;52.80;;;;;;2522074;55;21060;-73
2022/02/22 01:02:47;;;;;;;3.60;0.98;;;10.70;52.70;;;;;;2286796;56;21442;-73
2022/02/22 01:05:14;;;;;;;3.67;0.70;;;10.70;52.70;;;;;;2513539;54;20955;-73
2022/02/22 01:07:40;;;;;;;1.75;0.60;;;10.70;52.70;;;;;;2287148;56;20948;-72
2022/02/22 01:10:08;;;;;;;3.25;0.60;;;10.60;52.60;;;;;;2344588;55;20968;-72
2022/02/22 01:12:34;;;;;;;3.12;0.75;;;10.60;52.70;;;;;;2287451;56;20964;-73
2022/02/22 01:15:01;;;;;;;1.20;0.47;;;10.60;52.80;;;;;;2319901;55;21508;-73
2022/02/22 01:17:27;;;;;;;3.00;0.60;;;10.50;52.80;;;;;;2287829;55;20969;-72
2022/02/22 01:19:54;;;;;;;2.00;0.55;;;10.50;52.90;;;;;;2380394;54;21064;-72
2022/02/22 01:22:20;;;;;;;4.65;0.70;;;10.50;52.90;;;;;;2287542;56;21793;-72
2022/02/22 01:24:46;;;;;;;2.80;0.70;;;10.50;53.00;;;;;;2339004;55;21037;-73
2022/02/22 01:27:13;;;;;;;4.43;0.68;;;10.50;53.00;;;;;;2287169;56;20941;-73
2022/02/22 01:29:39;;;;;;;2.90;0.75;;;10.50;53.00;;;;;;2307374;55;21517;-74
2022/02/22 01:32:05;;;;;;;3.97;0.62;;;10.50;53.10;;;;;;2471389;55;20956;-72
2022/02/22 01:34:33;;;;;;;5.37;0.70;;;10.50;53.10;;;;;;2289976;55;21597;-72
2022/02/22 01:37:00;;;;;;;2.70;0.57;;;10.50;53.10;;;;;;2346758;55;21815;-72
2022/02/22 01:39:26;;;;;;;3.35;0.60;;;10.50;53.10;;;;;;2492919;54;20949;-72
2022/02/22 01:41:53;;;;;;;2.33;0.80;;;10.50;53.10;;;;;;2361814;54;20952;-72
2022/02/22 01:44:21;;;;;;;3.55;0.70;;;10.50;53.10;;;;;;2310731;55;20941;-74
2022/02/22 01:46:58;;;;;;;3.00;0.70;;;10.50;53.10;;;;;;2440891;55;21027;-72
2022/02/22 01:49:25;;;;;;;4.78;0.95;;;10.50;53.20;;;;;;2404102;55;21089;-72
2022/02/22 01:51:52;;;;;;;2.53;0.70;;;10.50;53.20;;;;;;2285847;55;21002;-73
2022/02/22 01:54:21;;;;;;;2.35;0.65;;;10.50;53.30;;;;;;2308628;55;21068;-72
2022/02/22 01:56:48;;;;;;;3.40;0.88;;;10.50;53.30;;;;;;2287127;55;20973;-73
2022/02/22 01:59:15;;;;;;;4.43;0.90;;;10.50;53.30;;;;;;2319082;55;21068;-72
2022/02/22 02:01:41;;;;;;;3.72;0.90;;;10.40;53.20;;;;;;2375618;55;21008;-72
2022/02/22 02:04:07;;;;;;;3.28;0.60;;;10.40;53.30;;;;;;2283296;54;20964;-73
2022/02/22 02:06:34;;;;;;;3.50;0.95;;;10.40;53.30;;;;;;2287398;56;21031;-72
2022/02/22 02:09:01;;;;;;;3.80;0.90;;;10.40;53.40;;;;;;2522098;55;21379;-73
2022/02/22 02:11:28;;;;;;;3.05;0.80;;;10.40;53.50;;;;;;2397091;55;20973;-73
2022/02/22 02:13:54;;;;;;;3.35;0.98;;;10.40;53.50;;;;;;2293410;55;21710;-72
2022/02/22 02:16:21;;;;;;;3.30;0.70;;;10.40;53.60;;;;;;2287368;56;20988;-73
2022/02/22 02:18:47;;;;;;;3.62;0.90;;;10.40;53.60;;;;;;2287549;56;20973;-72
2022/02/22 02:21:18;;;;;;;2.37;0.80;;;10.40;53.70;;;;;;2287905;56;21020;-73
2022/02/22 02:23:44;;;;;;;3.78;0.70;;;10.40;53.70;;;;;;2287436;56;21091;-73
2022/02/22 02:26:11;;;;;;;2.45;0.70;;;10.40;53.70;;;;;;2288171;56;20940;-73
2022/02/22 02:28:37;;;;;;;1.80;0.52;;;10.40;53.70;;;;;;2329115;55;21462;-73
2022/02/22 02:31:03;;;;;;;3.28;0.82;;;10.40;53.70;;;;;;2286892;55;21529;-71
2022/02/22 02:33:30;;;;;;;3.65;0.80;;;10.40;53.70;;;;;;2294392;55;20940;-74
2022/02/22 02:35:56;;;;;;;1.75;0.70;;;10.30;53.60;;;;;;2287896;56;20977;-74
2022/02/22 02:38:25;;;;;;;2.22;0.62;;;10.30;53.60;;;;;;2321084;55;21821;-73
2022/02/22 02:40:52;;;;;;;4.12;0.80;;;10.30;53.50;;;;;;2283532;55;21151;-74
2022/02/22 02:43:18;;;;;;;2.58;0.80;;;10.30;53.50;;;;;;2446230;55;20961;-74
2022/02/22 02:45:44;;;;;;;2.33;0.73;;;10.30;53.60;;;;;;2368328;55;21014;-72
2022/02/22 02:48:11;;;;;;;2.92;0.80;;;10.30;53.60;;;;;;2476922;54;21060;-71
2022/02/22 02:50:38;;;;;;;2.67;0.60;;;10.20;53.50;;;;;;2287142;56;21143;-72
2022/02/22 02:53:07;;;;;;;2.53;0.77;;;10.20;53.60;;;;;;2353208;55;21004;-73
2022/02/22 02:55:33;;;;;;;2.50;0.68;;;10.20;53.60;;;;;;2477071;55;21053;-73
2022/02/22 02:58:00;;;;;;;4.22;0.80;;;10.20;53.70;;;;;;2460198;55;21000;-71
2022/02/22 03:00:26;;;;;;;1.87;0.62;;;10.20;53.70;;;;;;2319596;55;21454;-73
2022/02/22 03:02:54;;;;;;;2.30;0.65;;;10.10;53.70;;;;;;2306529;55;20956;-73
2022/02/22 03:05:22;;;;;;;2.87;0.70;;;10.10;53.70;;;;;;2287405;56;21568;-72
2022/02/22 03:07:58;;;;;;;2.45;0.70;;;10.10;53.80;;;;;;2463392;55;21052;-71
2022/02/22 03:10:26;;;;;;;2.87;0.77;;;10.10;53.80;;;;;;2287433;56;20952;-72
2022/02/22 03:12:52;;;;;;;2.75;0.62;;;10.10;53.90;;;;;;2294252;55;21541;-72
2022/02/22 03:15:18;;;;;;;3.72;0.82;;;10.10;53.90;;;;;;2287565;56;20957;-74
2022/02/22 03:17:45;;;;;;;4.03;0.90;;;10.00;53.90;;;;;;2286792;56;20940;-74
2022/02/22 03:20:11;;;;;;;2.20;0.70;;;10.00;54.00;;;;;;2287127;56;21933;-73
2022/02/22 03:22:43;;;;;;;2.28;0.70;;;10.00;54.00;;;;;;2286914;55;20949;-73
2022/02/22 03:25:09;;;;;;;2.60;0.80;;;10.00;54.10;;;;;;2327897;55;20953;-73
2022/02/22 03:27:36;;;;;;;2.37;0.80;;;10.00;54.10;;;;;;2340456;55;20925;-73
2022/02/22 03:30:02;;;;;;;2.50;0.85;;;10.00;54.20;;;;;;2296360;55;21035;-73
2022/02/22 03:32:29;;;;;;;2.73;1.00;;;10.00;54.20;;;;;;2240746;55;3067853;-72
2022/02/22 03:34:55;;;;;;;3.20;0.80;;;10.00;54.20;;;;;;2342570;55;21513;-72
2022/02/22 03:37:21;;;;;;;2.67;0.60;;;10.00;54.30;;;;;;2429578;55;20945;-71
2022/02/22 03:39:48;;;;;;;2.37;0.80;;;10.00;54.30;;;;;;2287183;56;20944;-73
2022/02/22 03:42:14;;;;;;;1.65;0.70;;;10.00;54.30;;;;;;2287532;56;20997;-73
2022/02/22 03:44:41;;;;;;;3.53;0.95;;;9.90;55.20;;;;;;2287437;56;20991;-71
2022/02/22 03:47:08;;;;;;;3.10;0.68;;;10.00;54.40;;;;;;2287462;56;21008;-73
2022/02/22 03:49:35;;;;;;;2.80;0.62;;;10.00;54.40;;;;;;2286839;55;20997;-72
2022/02/22 03:52:01;;;;;;;2.83;0.50;;;9.90;55.30;;;;;;2521521;54;20957;-73
2022/02/22 03:54:27;;;;;;;3.37;0.70;;;10.00;54.50;;;;;;2287393;56;20960;-73
2022/02/22 03:56:54;;;;;;;4.03;1.00;;;10.00;54.50;;;;;;2287646;56;21032;-72
2022/02/22 03:59:21;;;;;;;2.65;0.62;;;9.90;55.40;;;;;;2287690;56;20952;-73
2022/02/22 04:01:49;;;;;;;3.15;0.82;;;9.90;55.40;;;;;;2287543;55;21001;-73
2022/02/22 04:04:16;;;;;;;8.45;2.85;;;10.00;54.60;;;;;;2521463;54;20937;-73
2022/02/22 04:06:46;;;;;;;12.43;5.22;;;9.90;55.50;;;;;;2287190;56;21004;-72
2022/02/22 04:09:12;;;;;;;17.58;6.57;;;10.00;54.70;;;;;;2265276;56;21524;-73
2022/02/22 04:11:39;;;;;;;18.85;6.00;;;10.00;54.70;;;;;;2494348;55;20972;-74
2022/02/22 04:14:06;;;;;;;13.32;4.80;;;10.00;54.70;;;;;;2287452;55;21429;-72
2022/02/22 04:16:33;;;;;;;9.95;3.12;;;10.00;54.80;;;;;;2287504;56;20993;-73
2022/02/22 04:19:00;;;;;;;9.07;2.60;;;10.00;54.80;;;;;;2288002;56;21002;-72
2022/02/22 04:21:26;;;;;;;6.07;2.03;;;10.00;54.80;;;;;;2287536;56;21016;-73
2022/02/22 04:23:53;;;;;;;5.57;1.30;;;10.00;54.80;;;;;;2296820;55;21467;-72
2022/02/22 04:26:19;;;;;;;4.90;1.05;;;10.00;54.80;;;;;;2283367;55;21014;-72
2022/02/22 04:28:49;;;;;;;4.07;0.95;;;10.00;54.80;;;;;;2282005;55;20993;-74
2022/02/22 04:31:15;;;;;;;4.28;1.12;;;10.00;54.70;;;;;;2287649;56;20968;-72
2022/02/22 04:33:41;;;;;;;3.90;1.27;;;10.00;54.60;;;;;;2287174;56;21001;-73
2022/02/22 04:36:09;;;;;;;4.30;1.17;;;10.00;54.60;;;;;;2287032;56;20953;-73
2022/02/22 04:38:35;;;;;;;2.47;0.80;;;10.00;54.60;;;;;;2286817;56;20996;-73
2022/02/22 04:41:02;;;;;;;2.90;0.80;;;10.00;54.60;;;;;;2287111;56;20996;-73
2022/02/22 04:43:29;;;;;;;2.97;0.80;;;10.00;54.60;;;;;;2287117;56;20965;-73
2022/02/22 04:45:55;;;;;;;3.17;0.80;;;9.90;55.40;;;;;;2286709;56;21076;-72
2022/02/22 04:48:22;;;;;;;3.22;0.85;;;9.90;55.50;;;;;;2287509;56;21005;-72
2022/02/22 04:50:48;;;;;;;6.78;1.08;;;9.90;56.10;;;;;;2287113;56;20953;-73
2022/02/22 04:53:16;;;;;;;4.00;1.00;;;9.90;55.60;;;;;;2521863;54;21030;-71
2022/02/22 04:55:42;;;;;;;2.45;0.80;;;10.00;55.00;;;;;;2286841;55;20957;-73
2022/02/22 04:58:09;;;;;;;2.22;0.90;;;9.90;55.60;;;;;;2339050;54;21765;-73
2022/02/22 05:00:36;;;;;;;3.22;0.98;;;9.90;55.60;;;;;;2286743;56;20949;-72
2022/02/22 05:03:02;;;;;;;3.10;0.90;;;9.90;55.60;;;;;;2286864;56;21425;-72
2022/02/22 05:05:28;;;;;;;5.72;1.30;;;9.90;55.70;;;;;;2287023;56;20992;-73
2022/02/22 05:07:58;;;;;;;4.65;1.87;;;9.80;55.60;;;;;;2287283;55;21596;-73
2022/02/22 05:10:27;;;;;;;4.80;1.90;;;9.80;55.70;;;;;;2289998;56;21826;-73
2022/02/22 05:12:53;;;;;;;4.10;1.90;;;9.90;55.70;;;;;;2486123;54;21056;-73
2022/02/22 05:15:20;;;;;;;5.25;1.92;;;9.80;55.70;;;;;;2286958;56;21440;-72
2022/02/22 05:17:46;;;;;;;4.95;2.25;;;9.80;55.70;;;;;;2285531;55;21403;-73
2022/02/22 05:20:13;;;;;;;6.40;2.10;;;9.80;55.70;;;;;;2306172;55;21722;-73
2022/02/22 05:22:44;;;;;;;4.28;2.03;;;9.70;55.70;;;;;;2291256;55;21087;-72
2022/02/22 05:25:10;;;;;;;6.70;1.98;;;9.70;55.80;;;;;;2390088;55;21102;-73
2022/02/22 05:27:36;;;;;;;3.60;1.50;;;9.70;55.80;;;;;;2284099;55;21456;-72
2022/02/22 05:30:04;;;;;;;4.03;1.58;;;9.70;55.80;;;;;;2287569;56;21028;-72
2022/02/22 05:32:30;;;;;;;4.47;1.33;;;9.70;55.90;;;;;;2287418;56;21021;-72
2022/02/22 05:34:57;;;;;;;6.22;1.62;;;9.70;55.90;;;;;;2287609;56;21029;-72
2022/02/22 05:37:26;;;;;;;4.40;1.37;;;9.60;56.40;;;;;;2380916;55;20956;-73
2022/02/22 05:39:55;;;;;;;3.62;1.45;;;9.60;55.90;;;;;;2521719;54;21096;-73
2022/02/22 05:42:22;;;;;;;5.47;1.45;;;9.60;55.90;;;;;;2287499;56;21052;-72
2022/02/22 05:44:49;;;;;;;4.57;2.15;;;9.60;56.00;;;;;;2327349;55;20960;-73
2022/02/22 05:47:15;;;;;;;4.30;1.62;;;9.60;56.00;;;;;;2341708;55;21008;-73
2022/02/22 05:49:42;;;;;;;5.50;1.90;;;9.60;56.20;;;;;;2312699;55;21525;-72
2022/02/22 05:52:08;;;;;;;4.30;1.77;;;9.60;56.20;;;;;;2287683;56;21469;-73
2022/02/22 05:54:35;;;;;;;6.28;2.15;;;9.60;56.20;;;;;;2496427;54;20961;-73
2022/02/22 05:57:02;;;;;;;4.28;2.08;;;9.60;56.20;;;;;;2287535;56;21018;-71
2022/02/22 05:59:28;;;;;;;4.60;1.70;;;9.60;56.30;;;;;;2315538;54;21698;-71
2022/02/22 06:01:55;;;;;;;4.78;1.80;;;9.60;56.30;;;;;;2287435;56;20953;-72
2022/02/22 06:04:22;;;;;;;4.28;1.65;;;9.60;56.20;;;;;;2419133;55;20932;-71
2022/02/22 06:06:51;;;;;;;5.57;1.40;;;9.60;56.20;;;;;;2286998;55;21076;-73
2022/02/22 06:09:18;;;;;;;3.25;1.40;;;9.60;56.80;;;;;;2516511;54;21026;-71
2022/02/22 06:11:49;;;;;;;3.85;1.50;;;9.60;56.20;;;;;;2287520;55;21065;-73
2022/02/22 06:14:15;;;;;;;4.12;1.67;;;9.60;56.30;;;;;;2318623;55;20956;-72
2022/02/22 06:16:43;;;;;;;4.47;1.70;;;9.50;56.20;;;;;;2491563;54;20975;-72
2022/02/22 06:19:09;;;;;;;5.18;1.52;;;9.50;56.20;;;;;;2286748;55;21013;-73
2022/02/22 06:21:36;;;;;;;4.37;1.42;;;9.50;56.30;;;;;;2287045;56;21410;-74
2022/02/22 06:24:03;;;;;;;4.93;1.50;;;9.50;56.30;;;;;;2465954;55;20961;-72
2022/02/22 06:26:29;;;;;;;4.37;1.90;;;9.50;56.40;;;;;;2286802;56;21000;-73
2022/02/22 06:28:56;;;;;;;8.05;2.92;;;9.50;56.50;;;;;;2339499;55;20988;-72
2022/02/22 06:31:22;;;;;;;8.70;3.40;;;9.60;56.60;;;;;;2287575;56;20964;-73
2022/02/22 06:33:49;;;;;;;7.55;2.83;;;9.60;56.60;;;;;;2290691;55;21582;-74
2022/02/22 06:36:15;;;;;;;7.78;2.87;;;9.60;56.70;;;;;;2287145;56;21021;-71
2022/02/22 06:38:43;;;;;;;6.03;1.90;;;9.60;56.70;;;;;;2291884;55;20953;-73
2022/02/22 06:41:09;;;;;;;5.97;2.05;;;9.60;56.70;;;;;;2287171;56;20984;-72
2022/02/22 06:43:36;;;;;;;6.75;2.15;;;9.60;56.80;;;;;;2359928;55;20936;-73
2022/02/22 06:46:03;;;;;;;6.90;2.15;;;9.60;56.80;;;;;;2287588;56;20968;-72
2022/02/22 06:48:29;;;;;;;6.60;2.35;;;9.60;56.80;;;;;;2404672;54;20952;-73
2022/02/22 06:50:56;;;;;;;5.22;1.70;;;9.60;56.80;;;;;;2287315;56;20992;-72
2022/02/22 06:53:25;;;;;;;5.43;1.65;;;9.70;56.80;;;;;;2265470;56;20965;-73
2022/02/22 06:55:51;;;;;;;4.15;1.30;;;9.70;56.80;;;;;;2292208;55;21011;-72
2022/02/22 06:58:18;;;;;;;3.70;1.15;;;9.70;56.80;;;;;;2293176;55;21304;-73
2022/02/22 07:00:48;;;;;;;4.90;1.37;;;9.70;56.70;;;;;;2287486;56;21013;-72
2022/02/22 07:03:15;;;;;;;5.35;1.50;;;9.70;56.70;;;;;;2351843;54;22715;-72
2022/02/22 07:05:41;;;;;;;3.95;1.08;;;9.70;56.70;;;;;;2359337;55;21479;-71
2022/02/22 07:08:08;;;;;;;3.60;1.40;;;9.70;56.70;;;;;;2364035;55;21832;-73
2022/02/22 07:10:34;;;;;;;5.93;1.20;;;9.80;56.70;;;;;;2273924;54;20993;-73
2022/02/22 07:13:01;;;;;;;7.28;1.58;;;9.80;56.70;;;;;;2401640;54;21013;-72
2022/02/22 07:15:28;;;;;;;4.95;1.30;;;9.80;56.70;;;;;;2349169;54;20952;-73
2022/02/22 07:17:56;;;;;;;5.35;1.40;;;9.80;56.70;;;;;;2287348;55;20980;-73
2022/02/22 07:20:23;;;;;;;4.53;1.10;;;9.80;56.70;;;;;;2287295;56;20937;-72
2022/02/22 07:22:52;;;;;;;5.30;1.45;;;9.90;56.70;;;;;;2294286;55;21435;-74
2022/02/22 07:25:19;;;;;;;4.47;1.20;;;9.90;56.70;;;;;;2318117;54;20981;-72
2022/02/22 07:27:45;;;;;;;3.92;1.10;;;10.00;55.90;;;;;;2267250;55;21001;-73
2022/02/22 07:30:14;;;;;;;3.87;1.23;;;9.90;56.60;;;;;;2287697;56;21052;-74
2022/02/22 07:32:41;;;;;;;4.25;1.33;;;10.00;55.80;;;;;;2290362;55;20966;-73
2022/02/22 07:35:08;;;;;;;4.20;1.35;;;10.10;55.80;;;;;;2287172;56;21021;-74
2022/02/22 07:37:38;;;;;;;9.35;1.87;;;10.00;55.60;;;;;;2319260;55;21867;-74
2022/02/22 07:40:05;;;;;;;6.55;1.60;;;10.10;55.60;;;;;;2376734;55;21411;-75
2022/02/22 07:42:32;;;;;;;7.50;1.95;;;10.10;56.20;;;;;;2310732;55;20981;-74
2022/02/22 07:44:59;;;;;;;5.82;1.52;;;10.10;55.60;;;;;;2286624;55;21018;-71
2022/02/22 07:47:25;;;;;;;5.15;1.58;;;10.20;55.60;;;;;;2287855;55;20968;-73
2022/02/22 07:49:54;;;;;;;7.47;1.70;;;10.20;55.60;;;;;;2390704;55;20940;-73
2022/02/22 07:52:26;;;;;;;8.68;1.58;;;10.20;55.60;;;;;;2286926;56;20905;-73
2022/02/22 07:54:52;;;;;;;5.32;1.58;;;10.30;55.60;;;;;;2286947;56;21019;-73
2022/02/22 07:57:19;;;;;;;5.87;1.65;;;10.30;55.60;;;;;;2310170;55;21021;-73
2022/02/22 07:59:45;;;;;;;5.25;1.55;;;10.30;55.60;;;;;;2353727;54;21005;-72
2022/02/22 08:02:12;;;;;;;4.20;1.30;;;10.30;55.60;;;;;;2401185;55;21464;-73
2022/02/22 08:04:40;;;;;;;5.75;1.55;;;10.40;55.60;;;;;;2286789;56;20945;-72
2022/02/22 08:07:07;;;;;;;8.38;1.83;;;10.40;55.60;;;;;;2320816;55;20969;-73
2022/02/22 08:09:34;;;;;;;6.30;1.80;;;10.40;55.50;;;;;;2287072;55;20960;-74
2022/02/22 08:12:00;;;;;;;4.65;1.33;;;10.50;55.60;;;;;;2287423;56;20949;-73
2022/02/22 08:14:29;;;;;;;8.75;1.70;;;10.50;55.60;;;;;;2287288;56;22014;-73
2022/02/22 08:16:59;;;;;;;6.85;1.50;;;10.50;55.60;;;;;;2435709;54;20977;-73
2022/02/22 08:19:28;;;;;;;7.20;1.95;;;10.50;55.50;;;;;;2287404;56;20944;-72
2022/02/22 08:21:55;;;;;;;7.43;1.77;;;10.60;55.50;;;;;;2287668;55;20937;-73
2022/02/22 08:24:22;;;;;;;5.28;1.62;;;10.60;55.50;;;;;;2286077;55;20985;-73
2022/02/22 08:26:50;;;;;;;5.80;1.37;;;10.60;55.50;;;;;;2296599;55;21008;-73
2022/02/22 08:29:16;;;;;;;7.10;2.17;;;10.60;55.60;;;;;;2465031;55;20968;-73
2022/02/22 08:31:43;;;;;;;6.30;1.90;;;10.60;55.50;;;;;;2287664;56;20940;-73
2022/02/22 08:34:10;;;;;;;5.75;2.50;;;10.60;55.50;;;;;;2415324;54;21754;-73
2022/02/22 08:36:36;;;;;;;5.07;2.22;;;10.70;55.60;;;;;;2333276;55;21446;-73
2022/02/22 08:39:03;;;;;;;6.90;2.05;;;10.70;55.60;;;;;;2287729;55;21626;-72
2022/02/22 08:41:30;;;;;;;7.78;1.87;;;10.80;55.60;;;;;;2315189;55;21028;-72
2022/02/22 08:43:57;;;;;;;7.85;1.77;;;10.80;55.60;;;;;;2287458;56;21547;-72
2022/02/22 08:46:24;;;;;;;6.95;1.87;;;10.80;55.70;;;;;;2287269;56;21417;-73
2022/02/22 08:48:51;;;;;;;7.40;1.52;;;10.80;55.70;;;;;;2287117;56;20980;-72
2022/02/22 08:51:18;;;;;;;5.90;1.67;;;10.90;55.90;;;;;;2349857;55;21002;-73
2022/02/22 08:53:44;;;;;;;8.90;1.50;;;10.90;56.00;;;;;;2286512;55;21488;-73
2022/02/22 08:56:10;;;;;;;7.40;1.60;;;11.00;56.10;;;;;;2366944;55;20964;-72
2022/02/22 08:58:37;;;;;;;7.50;1.65;;;11.10;56.10;;;;;;2286961;56;21000;-72
2022/02/22 09:01:04;;;;;;;6.25;1.55;;;11.10;56.00;;;;;;2379063;55;20965;-73
2022/02/22 09:03:30;;;;;;;7.20;2.10;;;11.10;56.00;;;;;;2294231;54;21014;-72
2022/02/22 09:05:59;;;;;;;8.65;2.45;;;11.10;55.80;;;;;;2291161;55;21004;-72
2022/02/22 09:08:26;;;;;;;8.95;2.28;;;11.20;55.70;;;;;;2287381;56;20952;-70
2022/02/22 09:10:54;;;;;;;7.55;1.95;;;11.20;55.60;;;;;;2291197;55;21043;-70
2022/02/22 09:13:22;;;;;;;5.40;1.98;;;11.10;55.40;;;;;;2288145;55;21036;-69
2022/02/22 09:15:49;;;;;;;5.53;1.83;;;11.10;55.50;;;;;;2285470;55;21478;-71
2022/02/22 09:18:16;;;;;;;6.65;1.60;;;11.00;55.50;;;;;;2285951;55;20961;-72
2022/02/22 09:20:43;;;;;;;5.32;2.10;;;11.00;55.60;;;;;;2319016;55;20936;-72
2022/02/22 09:23:09;;;;;;;4.87;1.50;;;10.90;55.70;;;;;;2370598;54;20952;-70
2022/02/22 09:25:37;;;;;;;8.05;2.28;;;10.90;56.00;;;;;;2325772;55;21094;-71
2022/02/22 09:28:06;;;;;;;7.47;1.90;;;10.80;56.10;;;;;;2388629;54;20997;-69
2022/02/22 09:30:34;;;;;;;5.50;1.65;;;10.90;56.50;;;;;;2336617;54;21509;-69
2022/02/22 09:33:00;;;;;;;6.85;2.17;;;10.80;56.50;;;;;;2386217;54;21451;-70
2022/02/22 09:35:27;;;;;;;7.90;2.40;;;10.80;56.70;;;;;;2293543;55;20952;-71
2022/02/22 09:37:54;;;;;;;8.88;2.45;;;10.80;56.90;;;;;;2285076;55;21438;-70
2022/02/22 09:40:21;;;;;;;9.10;2.30;;;10.90;57.10;;;;;;2333719;55;21818;-69
2022/02/22 09:42:48;;;;;;;5.87;2.33;;;10.90;57.40;;;;;;2290585;55;21482;-69
2022/02/22 09:45:15;;;;;;;7.32;2.42;;;10.90;57.50;;;;;;2516686;55;21092;-71
2022/02/22 09:47:42;;;;;;;9.07;2.60;;;11.00;57.80;;;;;;2333594;54;20952;-71
2022/02/22 09:50:09;;;;;;;6.95;2.53;;;11.10;58.00;;;;;;2373799;54;21045;-72
2022/02/22 09:52:35;;;;;;;13.50;2.90;;;11.20;58.00;;;;;;2424411;55;20961;-70
2022/02/22 09:55:02;;;;;;;8.77;2.72;;;11.30;58.00;;;;;;2308597;55;21428;-71
2022/02/22 09:57:29;;;;;;;11.73;3.03;;;11.30;57.80;;;;;;2287182;56;20953;-72
2022/02/22 09:59:56;;;;;;;11.25;2.50;;;11.30;57.60;;;;;;2289043;55;21016;-71
2022/02/22 10:02:22;;;;;;;11.75;3.03;;;11.40;57.60;;;;;;2286831;56;21020;-70
2022/02/22 10:04:50;;;;;;;7.43;2.28;;;11.40;57.50;;;;;;2306767;55;21004;-73
2022/02/22 10:07:17;;;;;;;10.27;3.12;;;11.40;57.40;;;;;;2286291;56;21624;-71
2022/02/22 10:10:02;;;;;;;10.93;2.67;;;11.40;57.40;;;;;;2470088;55;21008;-72
2022/02/22 10:12:35;;;;;;;8.60;2.28;;;11.40;57.50;;;;;;2286917;55;21946;-71
2022/02/22 10:15:03;;;;;;;7.12;2.45;;;11.40;57.40;;;;;;2432923;55;20964;-70
2022/02/22 10:17:40;;;;;;;8.35;2.83;;;11.40;57.60;;;;;;2289992;56;21016;-69
2022/02/22 10:20:09;;;;;;;8.13;2.55;;;11.40;57.90;;;;;;2321731;55;21481;-72
2022/02/22 10:22:56;;;;;;;11.02;2.42;;;11.40;58.00;;;;;;2386597;55;20964;-73
2022/02/22 10:25:25;;;;;;;10.35;2.55;;;11.40;58.80;;;;;;2415952;55;20956;-73
2022/02/22 10:28:00;;;;;;;12.88;2.67;;;11.50;58.30;;;;;;2314015;55;20952;-71
2022/02/22 10:30:40;;;;;;;8.75;2.72;;;11.50;58.30;;;;;;2295786;55;20997;-71
2022/02/22 10:33:12;;;;;;;6.78;2.12;;;11.50;58.20;;;;;;2287330;56;21020;-72
2022/02/22 10:35:39;;;;;;;8.90;2.85;;;11.60;58.30;;;;;;2287287;55;21005;-73
2022/02/22 10:38:25;;;;;;;8.85;2.70;;;11.60;58.30;;;;;;2286759;55;20962;-72
2022/02/22 10:41:14;;;;;;;9.88;2.58;;;11.70;58.50;;;;;;2360826;55;21008;-71
2022/02/22 10:44:02;;;;;;;10.50;3.45;;;11.70;58.50;;;;;;2286397;56;21394;-72
2022/02/22 10:46:32;;;;;;;9.32;2.47;;;11.80;58.60;;;;;;2307157;55;20958;-73
2022/02/22 10:49:07;;;;;;;11.63;2.45;;;11.80;58.50;;;;;;2285387;56;20945;-73
2022/02/22 10:51:42;;;;;;;13.60;2.92;;;11.80;58.60;;;;;;2297051;54;20989;-73
2022/02/22 10:54:14;;;;;;;8.73;2.62;;;11.90;58.60;;;;;;2286387;56;21068;-73
2022/02/22 10:56:41;;;;;;;9.95;2.83;;;11.90;58.60;;;;;;2286084;56;20941;-72
2022/02/22 10:59:08;;;;;;;6.50;2.40;;;11.90;58.60;;;;;;2285898;56;20994;-71
2022/02/22 11:01:35;;;;;;;10.43;2.60;;;12.00;58.80;;;;;;2340452;55;21021;-72
2022/02/22 11:04:01;;;;;;;9.98;2.42;;;12.10;58.90;;;;;;2286909;55;20949;-73
2022/02/22 11:06:28;;;;;;;7.00;1.85;;;12.10;58.70;;;;;;2286838;56;20964;-72
2022/02/22 11:08:55;;;;;;;7.22;1.92;;;12.20;58.70;;;;;;2462841;55;20989;-73
2022/02/22 11:11:52;;;;;;;6.62;2.05;;;12.20;58.60;;;;;;2286903;55;21425;-73
2022/02/22 11:14:24;;;;;;;6.68;2.58;;;12.30;58.60;;;;;;2286988;56;20949;-72
2022/02/22 11:16:52;;;;;;;8.95;3.58;;;12.40;58.60;;;;;;2287048;56;21346;-73
2022/02/22 11:19:35;;;;;;;8.48;2.25;;;12.40;58.60;;;;;;2287245;56;21594;-73
2022/02/22 11:23:03;;;;;;;11.10;2.60;;;12.50;58.40;;;;;;2286300;55;21028;-72
2022/02/22 11:25:31;;;;;;;8.45;2.25;;;12.50;58.10;;;;;;2287472;56;20969;-74
2022/02/22 11:28:07;;;;;;;4.90;1.67;;;12.50;58.30;;;;;;2433564;55;20995;-73
2022/02/22 11:30:37;;;;;;;6.50;1.62;;;12.60;58.50;;;;;;2280563;55;21040;-73
2022/02/22 11:33:08;;;;;;;5.00;1.70;;;12.70;58.70;;;;;;2287116;56;20920;-72
2022/02/22 11:35:53;;;;;;;7.00;1.90;;;12.80;59.00;;;;;;2287837;55;20962;-73
2022/02/22 11:38:19;;;;;;;8.23;1.70;;;12.90;59.20;;;;;;2287388;55;21017;-74
2022/02/22 11:40:49;;;;;;;6.05;1.42;;;13.00;59.60;;;;;;2286980;56;21690;-72
2022/02/22 11:43:17;;;;;;;9.10;2.00;;;13.20;59.50;;;;;;2287417;56;21869;-72
2022/02/22 11:45:45;;;;;;;9.15;2.20;;;13.30;58.90;;;;;;2294045;55;20930;-74
2022/02/22 11:48:25;;;;;;;6.37;1.70;;;13.40;58.50;;;;;;2284505;54;20973;-75
2022/02/22 11:50:59;;;;;;;10.55;1.92;;;13.50;57.90;;;;;;2287173;55;20941;-72
2022/02/22 11:53:29;;;;;;;7.18;1.80;;;13.60;57.20;;;;;;2287533;56;21001;-74
2022/02/22 11:55:58;;;;;;;6.62;1.50;;;13.70;56.60;;;;;;2287254;55;20929;-73
2022/02/22 11:58:25;;;;;;;10.60;2.03;;;13.70;56.50;;;;;;2287172;56;20952;-76
2022/02/22 12:00:54;;;;;;;4.62;1.42;;;13.70;56.00;;;;;;2330796;54;20960;-74
2022/02/22 12:03:22;;;;;;;7.45;1.80;;;13.70;56.00;;;;;;2381838;54;20952;-72
2022/02/22 12:05:57;;;;;;;9.65;2.60;;;13.70;55.50;;;;;;2288668;55;20968;-72
2022/02/22 12:08:33;;;;;;;8.05;2.17;;;13.80;55.60;;;;;;2266003;55;21746;-74
2022/02/22 12:11:00;;;;;;;12.07;3.35;;;13.80;55.80;;;;;;2287274;55;20964;-73
2022/02/22 12:13:43;;;;;;;12.98;3.10;;;13.80;55.50;;;;;;2324477;55;21448;-74
2022/02/22 12:16:18;;;;;;;9.55;2.53;;;13.90;55.50;;;;;;2286859;55;20978;-74
2022/02/22 12:18:46;;;;;;;8.65;2.85;;;13.90;55.50;;;;;;2295871;55;20948;-73
2022/02/22 12:21:12;;;;;;;11.20;2.87;;;14.00;55.60;;;;;;2287196;56;20992;-71
2022/02/22 12:23:39;;;;;;;8.98;3.15;;;14.00;55.30;;;;;;2313475;54;21799;-73
2022/02/22 12:26:10;;;;;;;12.70;4.37;;;13.90;54.60;;;;;;2286567;55;21567;-73
2022/02/22 12:28:58;;;;;;;11.80;3.80;;;13.90;54.70;;;;;;2286359;56;21471;-74
2022/02/22 12:31:28;;;;;;;10.10;3.25;;;13.90;54.40;;;;;;2287632;56;20945;-73
2022/02/22 12:33:58;;;;;;;15.70;4.47;;;14.00;54.80;;;;;;2265031;56;20995;-74
2022/02/22 12:36:26;;;;;;;9.48;3.15;;;13.90;54.60;;;;;;2489934;55;21740;-74
2022/02/22 12:39:01;;;;;;;10.43;3.35;;;14.00;54.80;;;;;;2446219;55;21549;-74
2022/02/22 12:41:34;;;;;;;11.57;3.30;;;14.00;54.40;;;;;;2358216;55;20937;-74
2022/02/22 12:44:01;;;;;;;13.15;2.60;;;13.90;54.40;;;;;;2285843;56;21468;-73
2022/02/22 12:46:28;;;;;;;6.93;2.10;;;13.90;53.70;;;;;;2287139;56;21492;-74
2022/02/22 12:48:54;;;;;;;10.30;2.40;;;14.00;53.90;;;;;;2288488;56;21076;-73
2022/02/22 12:51:25;;;;;;;8.18;2.10;;;13.90;53.80;;;;;;2288011;55;21500;-72
2022/02/22 12:54:11;;;;;;;12.25;2.22;;;13.90;53.30;;;;;;2289232;56;21007;-72